createdAt,value
2018-12-14T00:01:45.704Z,56.50
2018-12-14T00:04:13.391Z,56.60
2018-12-14T00:06:41.016Z,56.80
2018-12-14T00:09:08.535Z,56.90
2018-12-14T00:11:36.034Z,56.80
2018-12-14T00:14:03.596Z,56.20
2018-12-14T00:16:31.097Z,55.80
2018-12-14T00:18:58.580Z,55.90
2018-12-14T00:21:26.177Z,55.50
2018-12-14T00:23:53.675Z,55.50
2018-12-14T00:26:21.194Z,55.20
2018-12-14T00:28:48.674Z,55.80
2018-12-14T00:31:16.202Z,56.00
2018-12-14T00:33:43.772Z,56.50
2018-12-14T00:36:11.301Z,56.60
2018-12-14T00:38:39.060Z,56.60
2018-12-14T00:41:06.592Z,56.30
2018-12-14T00:43:34.113Z,56.30
2018-12-14T00:46:01.624Z,56.40
2018-12-14T00:48:29.133Z,56.50
2018-12-14T00:50:56.621Z,55.70
2018-12-14T00:53:24.151Z,55.50
2018-12-14T00:55:51.646Z,55.60
2018-12-14T00:58:19.191Z,55.70
2018-12-14T01:00:46.661Z,55.90
2018-12-14T01:03:14.194Z,55.50
2018-12-14T01:05:41.783Z,55.30
2018-12-14T01:08:09.352Z,55.60
2018-12-14T01:10:36.899Z,55.80
2018-12-14T01:13:04.581Z,55.80
2018-12-14T01:15:32.111Z,56.00
2018-12-14T01:17:59.824Z,55.70
2018-12-14T01:20:27.407Z,55.80
2018-12-14T01:22:54.940Z,55.90
2018-12-14T01:25:22.443Z,56.20
2018-12-14T01:27:49.962Z,56.40
2018-12-14T01:30:17.435Z,56.70
2018-12-14T01:32:44.960Z,56.90
2018-12-14T01:35:12.644Z,57.00
2018-12-14T01:37:40.132Z,57.00
2018-12-14T01:40:07.691Z,57.00
2018-12-14T01:42:35.320Z,56.90
2018-12-14T01:45:03.637Z,57.20
2018-12-14T01:47:31.180Z,57.30
2018-12-14T01:49:58.677Z,57.20
2018-12-14T01:52:27.219Z,57.40
2018-12-14T01:54:54.984Z,57.60
2018-12-14T01:57:22.684Z,57.20
2018-12-14T01:59:50.178Z,57.40
2018-12-14T02:02:17.734Z,56.80
2018-12-14T02:04:45.262Z,56.90
2018-12-14T02:07:12.763Z,56.90
2018-12-14T02:09:40.324Z,56.90
2018-12-14T02:12:11.222Z,56.70
2018-12-14T02:14:37.338Z,56.70
2018-12-14T02:17:04.881Z,56.70
2018-12-14T02:19:32.453Z,56.80
2018-12-14T02:21:59.967Z,56.70
2018-12-14T02:24:27.468Z,56.60
2018-12-14T02:26:54.975Z,56.50
2018-12-14T02:29:22.455Z,56.30
2018-12-14T02:31:49.918Z,56.40
2018-12-14T02:34:17.481Z,56.10
2018-12-14T02:36:44.957Z,56.00
2018-12-14T02:39:12.493Z,56.10
2018-12-14T02:41:40.077Z,56.70
2018-12-14T02:44:07.577Z,55.70
2018-12-14T02:46:35.084Z,55.70
2018-12-14T02:49:02.616Z,55.60
2018-12-14T02:51:30.140Z,55.60
2018-12-14T02:53:57.631Z,55.90
2018-12-14T02:56:25.106Z,56.30
2018-12-14T02:58:52.635Z,56.00
2018-12-14T03:01:20.133Z,56.00
2018-12-14T03:03:47.644Z,55.80
2018-12-14T03:06:15.146Z,55.90
2018-12-14T03:08:42.661Z,55.80
2018-12-14T03:11:10.189Z,55.20
2018-12-14T03:13:37.658Z,55.60
2018-12-14T03:16:05.171Z,55.80
2018-12-14T03:18:32.678Z,56.00
2018-12-14T03:21:00.191Z,55.80
2018-12-14T03:23:27.710Z,56.10
2018-12-14T03:25:55.499Z,56.10
2018-12-14T03:28:23.028Z,56.00
2018-12-14T03:30:50.553Z,56.00
2018-12-14T03:33:18.016Z,55.80
2018-12-14T03:35:45.557Z,56.10
2018-12-14T03:38:13.075Z,56.10
2018-12-14T03:40:40.570Z,56.80
2018-12-14T03:43:08.105Z,56.00
2018-12-14T03:45:35.588Z,56.10
2018-12-14T03:48:03.109Z,56.00
2018-12-14T03:50:30.590Z,56.20
2018-12-14T03:52:58.089Z,56.30
2018-12-14T03:55:25.950Z,56.40
2018-12-14T03:57:54.192Z,56.20
2018-12-14T04:00:21.986Z,56.50
2018-12-14T04:02:49.744Z,56.20
2018-12-14T04:05:17.545Z,56.40
2018-12-14T04:07:45.022Z,56.50
2018-12-14T04:10:12.559Z,56.50
2018-12-14T04:12:41.831Z,56.60
2018-12-14T04:15:09.606Z,56.50
2018-12-14T04:17:37.107Z,56.50
2018-12-14T04:20:05.168Z,56.70
2018-12-14T04:22:32.817Z,56.80
2018-12-14T04:25:00.304Z,56.50
2018-12-14T04:27:27.825Z,56.40
2018-12-14T04:29:55.387Z,56.10
2018-12-14T04:32:22.856Z,56.30
2018-12-14T04:34:50.395Z,56.10
2018-12-14T04:37:17.891Z,56.10
2018-12-14T04:39:45.368Z,56.10
2018-12-14T04:42:12.888Z,56.30
2018-12-14T04:44:40.840Z,56.10
2018-12-14T04:47:08.727Z,56.00
2018-12-14T04:49:36.512Z,56.20
2018-12-14T04:52:06.026Z,55.80
2018-12-14T04:54:33.503Z,56.10
2018-12-14T04:57:01.164Z,56.20
2018-12-14T04:59:28.642Z,56.50
2018-12-14T05:01:56.152Z,56.30
2018-12-14T05:04:23.724Z,56.40
2018-12-14T05:06:51.254Z,56.30
2018-12-14T05:09:18.820Z,56.40
2018-12-14T05:11:46.305Z,56.10
2018-12-14T05:14:13.841Z,56.20
2018-12-14T05:16:41.343Z,56.20
2018-12-14T05:19:08.842Z,56.00
2018-12-14T05:21:36.394Z,56.10
2018-12-14T05:24:03.905Z,55.90
2018-12-14T05:26:31.427Z,56.20
2018-12-14T05:28:58.907Z,56.20
2018-12-14T05:31:26.456Z,55.90
2018-12-14T05:33:53.995Z,56.00
2018-12-14T05:36:21.522Z,56.60
2018-12-14T05:38:49.071Z,56.10
2018-12-14T05:41:16.695Z,55.90
2018-12-14T05:43:44.216Z,56.70
2018-12-14T05:46:11.759Z,56.10
2018-12-14T05:48:39.283Z,55.90
2018-12-14T05:51:06.814Z,56.00
2018-12-14T05:53:34.385Z,56.00
2018-12-14T05:56:01.980Z,56.00
2018-12-14T05:58:29.470Z,56.00
2018-12-14T06:00:57.013Z,56.50
2018-12-14T06:03:24.537Z,56.30
2018-12-14T06:05:52.043Z,56.10
2018-12-14T06:08:19.515Z,56.20
2018-12-14T06:10:47.054Z,56.40
2018-12-14T06:13:14.511Z,56.50
2018-12-14T06:15:42.074Z,56.20
2018-12-14T06:18:09.578Z,56.10
2018-12-14T06:20:37.056Z,56.00
2018-12-14T06:23:04.598Z,56.10
2018-12-14T06:25:32.074Z,55.80
2018-12-14T06:27:59.554Z,56.10
2018-12-14T06:30:27.161Z,56.30
2018-12-14T06:32:54.671Z,56.20
2018-12-14T06:35:22.158Z,56.40
2018-12-14T06:37:49.667Z,56.40
2018-12-14T06:40:17.201Z,56.50
2018-12-14T06:42:44.731Z,56.40
2018-12-14T06:45:12.306Z,56.50
2018-12-14T06:47:39.885Z,56.40
2018-12-14T06:50:07.453Z,56.50
2018-12-14T06:52:35.076Z,56.60
2018-12-14T06:55:02.582Z,56.60
2018-12-14T06:57:30.122Z,56.50
2018-12-14T06:59:57.647Z,56.50
2018-12-14T07:02:25.222Z,56.20
2018-12-14T07:04:52.811Z,56.50
2018-12-14T07:07:20.333Z,56.50
2018-12-14T07:09:47.856Z,56.40
2018-12-14T07:12:15.384Z,56.40
2018-12-14T07:14:42.882Z,56.50
2018-12-14T07:17:10.387Z,56.20
2018-12-14T07:19:37.887Z,56.50
2018-12-14T07:22:05.928Z,56.20
2018-12-14T07:24:33.492Z,56.50
2018-12-14T07:27:01.060Z,56.70
2018-12-14T07:29:28.648Z,56.70
2018-12-14T07:31:56.154Z,57.10
2018-12-14T07:34:23.708Z,57.20
2018-12-14T07:36:51.180Z,57.30
2018-12-14T07:39:18.720Z,56.70
2018-12-14T07:41:46.255Z,57.00
2018-12-14T07:44:13.769Z,57.00
2018-12-14T07:46:41.315Z,57.00
2018-12-14T07:49:08.842Z,57.10
2018-12-14T07:51:36.458Z,57.50
2018-12-14T07:54:04.014Z,57.90
2018-12-14T07:56:31.538Z,56.60
2018-12-14T07:58:59.245Z,56.70
2018-12-14T08:01:26.862Z,56.40
2018-12-14T08:03:54.344Z,56.20
2018-12-14T08:06:21.844Z,56.00
2018-12-14T08:08:49.365Z,56.30
2018-12-14T08:11:16.878Z,55.80
2018-12-14T08:13:44.398Z,55.40
2018-12-14T08:16:11.922Z,55.10
2018-12-14T08:18:39.467Z,55.00
2018-12-14T08:21:06.965Z,55.10
2018-12-14T08:23:34.464Z,55.10
2018-12-14T08:26:02.019Z,55.60
2018-12-14T08:28:29.510Z,55.30
2018-12-14T08:30:57.060Z,55.20
2018-12-14T08:33:24.619Z,54.90
2018-12-14T08:35:52.141Z,55.20
2018-12-14T08:38:19.687Z,55.30
2018-12-14T08:40:47.191Z,55.30
2018-12-14T08:43:14.659Z,55.40
2018-12-14T08:45:42.227Z,55.30
2018-12-14T08:48:09.717Z,55.20
2018-12-14T08:50:37.492Z,54.90
2018-12-14T08:53:05.087Z,54.80
2018-12-14T08:55:32.619Z,55.20
2018-12-14T08:58:00.104Z,54.90
2018-12-14T09:00:27.630Z,54.80
2018-12-14T09:02:55.121Z,54.70
2018-12-14T09:05:22.677Z,54.70
2018-12-14T09:07:50.166Z,54.10
2018-12-14T09:10:19.358Z,54.00
2018-12-14T09:12:47.084Z,54.90
2018-12-14T09:15:14.574Z,53.90
2018-12-14T09:17:42.146Z,54.30
2018-12-14T09:20:09.798Z,54.50
2018-12-14T09:22:37.825Z,54.60
2018-12-14T09:25:05.307Z,55.10
2018-12-14T09:27:33.607Z,55.60
2018-12-14T09:30:01.144Z,55.70
2018-12-14T09:32:28.628Z,55.80
2018-12-14T09:34:56.160Z,56.00
2018-12-14T09:37:23.682Z,56.20
2018-12-14T09:39:51.187Z,56.30
2018-12-14T09:42:18.722Z,55.90
2018-12-14T09:44:46.246Z,55.30
2018-12-14T09:47:13.782Z,55.10
2018-12-14T09:49:41.326Z,55.20
2018-12-14T09:52:09.614Z,55.40
2018-12-14T09:54:37.130Z,55.30
2018-12-14T09:57:04.629Z,54.90
2018-12-14T09:59:32.158Z,54.90
2018-12-14T10:01:59.678Z,55.70
2018-12-14T10:04:27.191Z,54.90
2018-12-14T10:06:54.770Z,54.80
2018-12-14T10:09:22.293Z,54.60
2018-12-14T10:11:55.126Z,54.40
2018-12-14T10:14:19.290Z,54.40
2018-12-14T10:16:46.989Z,54.60
2018-12-14T10:19:14.478Z,54.60
2018-12-14T10:21:42.028Z,54.50
2018-12-14T10:24:09.594Z,54.30
2018-12-14T10:26:37.184Z,54.70
2018-12-14T10:29:04.676Z,54.40
2018-12-14T10:31:32.326Z,54.40
2018-12-14T10:33:59.840Z,54.60
2018-12-14T10:36:27.371Z,54.70
2018-12-14T10:38:55.002Z,54.60
2018-12-14T10:41:22.476Z,54.80
2018-12-14T10:43:50.022Z,55.00
2018-12-14T10:46:17.782Z,55.00
2018-12-14T10:48:45.321Z,54.80
2018-12-14T10:51:12.815Z,54.80
2018-12-14T10:53:40.360Z,54.90
2018-12-14T10:56:07.923Z,54.80
2018-12-14T10:58:35.430Z,54.40
2018-12-14T11:01:08.483Z,54.40
2018-12-14T11:03:36.048Z,53.90
2018-12-14T11:06:03.697Z,54.10
2018-12-14T11:08:31.245Z,54.10
2018-12-14T11:10:58.758Z,54.20
2018-12-14T11:13:26.279Z,54.30
2018-12-14T11:15:53.759Z,55.00
2018-12-14T11:18:21.323Z,55.00
2018-12-14T11:20:48.884Z,54.70
2018-12-14T11:23:16.416Z,54.90
2018-12-14T11:25:43.966Z,54.40
2018-12-14T11:28:12.452Z,54.20
2018-12-14T11:30:40.020Z,54.20
2018-12-14T11:33:07.566Z,54.10
2018-12-14T11:35:35.051Z,54.20
2018-12-14T11:38:02.530Z,54.10
2018-12-14T11:40:30.084Z,54.40
2018-12-14T11:42:57.637Z,54.60
2018-12-14T11:45:25.105Z,53.90
2018-12-14T11:47:52.610Z,54.20
2018-12-14T11:50:20.182Z,55.30
2018-12-14T11:52:47.662Z,55.00
2018-12-14T11:55:15.203Z,54.90
2018-12-14T11:57:42.681Z,54.40
2018-12-14T12:00:10.354Z,54.10
2018-12-14T12:02:43.123Z,54.00
2018-12-14T12:05:07.372Z,54.50
2018-12-14T12:07:34.922Z,54.30
2018-12-14T12:10:02.522Z,54.20
2018-12-14T12:12:30.053Z,54.40
2018-12-14T12:14:57.599Z,54.70
2018-12-14T12:17:25.059Z,54.60
2018-12-14T12:19:52.603Z,54.30
2018-12-14T12:22:20.136Z,54.30
2018-12-14T12:24:47.626Z,54.60
2018-12-14T12:27:15.223Z,54.60
2018-12-14T12:29:42.748Z,54.50
2018-12-14T12:32:10.279Z,54.40
2018-12-14T12:34:37.811Z,54.50
2018-12-14T12:37:05.323Z,54.50
2018-12-14T12:39:32.801Z,54.30
2018-12-14T12:42:00.340Z,54.10
2018-12-14T12:44:33.312Z,54.30
2018-12-14T12:46:57.478Z,54.10
2018-12-14T12:49:24.992Z,54.10
2018-12-14T12:51:52.547Z,54.00
2018-12-14T12:54:20.207Z,53.70
2018-12-14T12:56:47.724Z,53.90
2018-12-14T12:59:15.257Z,53.50
2018-12-14T13:01:42.767Z,52.70
2018-12-14T13:04:10.318Z,53.30
2018-12-14T13:06:37.888Z,52.90
2018-12-14T13:09:05.777Z,52.60
2018-12-14T13:11:33.283Z,53.00
2018-12-14T13:14:00.870Z,53.20
2018-12-14T13:16:28.383Z,52.80
2018-12-14T13:18:55.854Z,52.70
2018-12-14T13:21:23.455Z,52.70
2018-12-14T13:23:51.071Z,52.60
2018-12-14T13:26:18.569Z,52.70
2018-12-14T13:28:46.109Z,52.70
2018-12-14T13:31:13.597Z,52.80
2018-12-14T13:33:41.283Z,52.70
2018-12-14T13:36:08.851Z,52.60
2018-12-14T13:38:36.451Z,52.70
2018-12-14T13:41:04.053Z,52.70
2018-12-14T13:43:31.614Z,52.70
2018-12-14T13:45:59.264Z,52.70
2018-12-14T13:48:26.868Z,52.70
2018-12-14T13:50:54.419Z,52.60
2018-12-14T13:53:21.898Z,52.60
2018-12-14T13:55:49.514Z,52.70
2018-12-14T13:58:17.021Z,52.60
2018-12-14T14:00:44.527Z,52.70
2018-12-14T14:03:12.059Z,52.60
2018-12-14T14:05:39.547Z,52.60
2018-12-14T14:08:07.138Z,52.60
2018-12-14T14:10:34.611Z,52.60
2018-12-14T14:13:02.121Z,52.50
2018-12-14T14:15:29.660Z,52.50
2018-12-14T14:17:57.137Z,52.60
2018-12-14T14:20:24.703Z,52.60
2018-12-14T14:22:52.237Z,52.60
2018-12-14T14:25:19.724Z,52.60
2018-12-14T14:27:47.359Z,52.60
2018-12-14T14:30:14.872Z,52.60
2018-12-14T14:32:42.347Z,52.70
2018-12-14T14:35:10.959Z,52.70
2018-12-14T14:37:38.486Z,52.60
2018-12-14T14:40:06.312Z,52.00
2018-12-14T14:42:33.815Z,51.60
2018-12-14T14:45:01.320Z,52.00
2018-12-14T14:47:28.880Z,52.50
2018-12-14T14:49:56.460Z,52.50
2018-12-14T14:52:25.579Z,52.50
2018-12-14T14:54:53.266Z,52.50
2018-12-14T14:57:20.788Z,52.50
2018-12-14T14:59:48.292Z,52.80
2018-12-14T15:02:15.824Z,52.90
2018-12-14T15:04:43.341Z,52.50
2018-12-14T15:07:10.824Z,52.50
2018-12-14T15:09:39.087Z,52.50
2018-12-14T15:12:07.997Z,52.50
2018-12-14T15:14:35.498Z,52.50
2018-12-14T15:17:03.188Z,52.50
2018-12-14T15:19:30.780Z,52.50
2018-12-14T15:22:04.398Z,52.60
2018-12-14T15:24:28.076Z,52.50
2018-12-14T15:26:55.560Z,52.50
2018-12-14T15:29:23.076Z,52.40
2018-12-14T15:31:50.903Z,52.30
2018-12-14T15:34:18.430Z,52.50
2018-12-14T15:36:45.901Z,52.50
2018-12-14T15:39:14.063Z,52.50
2018-12-14T15:41:41.707Z,52.50
2018-12-14T15:44:09.193Z,52.40
2018-12-14T15:46:37.354Z,52.00
2018-12-14T15:49:05.789Z,51.80
2018-12-14T15:51:33.321Z,52.10
2018-12-14T15:54:00.855Z,52.30
2018-12-14T15:56:28.394Z,52.40
2018-12-14T15:58:55.942Z,52.40
2018-12-14T16:01:23.466Z,52.40
2018-12-14T16:03:51.019Z,52.40
2018-12-14T16:06:18.528Z,52.40
2018-12-14T16:08:46.035Z,52.40
2018-12-14T16:11:13.658Z,52.40
2018-12-14T16:13:41.279Z,52.10
2018-12-14T16:16:08.928Z,52.20
2018-12-14T16:18:36.538Z,51.70
2018-12-14T16:21:04.165Z,51.90
2018-12-14T16:23:31.705Z,52.30
2018-12-14T16:26:00.179Z,52.30
2018-12-14T16:28:27.702Z,52.30
2018-12-14T16:30:55.849Z,52.30
2018-12-14T16:33:23.396Z,52.40
2018-12-14T16:35:50.942Z,52.30
2018-12-14T16:38:18.453Z,52.20
2018-12-14T16:40:46.002Z,52.20
2018-12-14T16:43:13.549Z,51.20
2018-12-14T16:45:41.531Z,51.70
2018-12-14T16:48:09.273Z,51.80
2018-12-14T16:50:36.874Z,50.90
2018-12-14T16:53:04.439Z,51.40
2018-12-14T16:55:32.134Z,51.30
2018-12-14T16:58:00.739Z,51.50
2018-12-14T17:00:28.327Z,52.10
2018-12-14T17:02:55.972Z,51.90
2018-12-14T17:05:23.556Z,52.10
2018-12-14T17:07:51.126Z,52.10
2018-12-14T17:10:18.726Z,52.10
2018-12-14T17:12:46.274Z,52.10
2018-12-14T17:15:13.775Z,52.10
2018-12-14T17:17:41.246Z,52.10
2018-12-14T17:20:08.875Z,52.10
2018-12-14T17:22:36.443Z,52.10
2018-12-14T17:25:06.270Z,52.10
2018-12-14T17:27:34.833Z,52.10
2018-12-14T17:30:02.637Z,52.10
2018-12-14T17:32:30.282Z,52.10
2018-12-14T17:34:57.791Z,52.10
2018-12-14T17:37:25.294Z,52.10
2018-12-14T17:39:53.841Z,52.10
2018-12-14T17:42:21.491Z,52.10
2018-12-14T17:44:49.031Z,52.10
2018-12-14T17:47:16.544Z,52.10
2018-12-14T17:49:44.063Z,52.20
2018-12-14T17:52:11.587Z,52.10
2018-12-14T17:54:39.083Z,52.10
2018-12-14T17:57:06.640Z,52.10
2018-12-14T17:59:34.123Z,52.10
2018-12-14T18:02:01.662Z,51.90
2018-12-14T18:04:29.325Z,52.10
2018-12-14T18:06:56.843Z,52.10
2018-12-14T18:09:24.378Z,52.10
2018-12-14T18:11:51.877Z,52.10
2018-12-14T18:14:19.449Z,52.10
2018-12-14T18:16:47.178Z,52.10
2018-12-14T18:19:14.838Z,52.00
2018-12-14T18:21:42.366Z,52.10
2018-12-14T18:24:09.853Z,52.10
2018-12-14T18:26:37.415Z,52.10
2018-12-14T18:29:05.161Z,52.00
2018-12-14T18:31:32.666Z,52.00
2018-12-14T18:34:00.304Z,52.10
2018-12-14T18:36:27.876Z,52.00
2018-12-14T18:38:55.576Z,52.00
2018-12-14T18:41:23.063Z,52.00
2018-12-14T18:43:50.583Z,52.00
2018-12-14T18:46:18.154Z,52.00
2018-12-14T18:48:45.681Z,52.00
2018-12-14T18:51:13.175Z,52.00
2018-12-14T18:53:42.699Z,52.00
2018-12-14T18:56:10.228Z,52.00
2018-12-14T18:58:37.755Z,52.00
2018-12-14T19:01:05.288Z,52.00
2018-12-14T19:03:34.230Z,52.10
2018-12-14T19:06:01.851Z,52.10
2018-12-14T19:08:29.461Z,52.20
2018-12-14T19:10:57.879Z,52.10
2018-12-14T19:13:25.359Z,52.10
2018-12-14T19:15:59.451Z,52.10
2018-12-14T19:18:22.510Z,52.10
2018-12-14T19:20:49.989Z,52.00
2018-12-14T19:23:19.747Z,52.00
2018-12-14T19:25:47.071Z,52.00
2018-12-14T19:28:15.584Z,52.10
2018-12-14T19:30:43.136Z,52.10
2018-12-14T19:33:11.243Z,52.10
2018-12-14T19:35:38.871Z,52.10
2018-12-14T19:38:06.426Z,52.10
2018-12-14T19:40:33.910Z,52.10
2018-12-14T19:43:01.412Z,52.10
2018-12-14T19:45:28.963Z,52.10
2018-12-14T19:47:56.489Z,52.10
2018-12-14T19:50:24.214Z,52.10
2018-12-14T19:52:51.813Z,52.00
2018-12-14T19:55:19.403Z,52.10
2018-12-14T19:57:46.963Z,52.10
2018-12-14T20:00:14.490Z,52.10
2018-12-14T20:02:42.040Z,52.10
2018-12-14T20:05:09.885Z,51.90
2018-12-14T20:07:37.442Z,52.10
2018-12-14T20:10:06.433Z,52.00
2018-12-14T20:12:33.908Z,52.10
2018-12-14T20:15:01.420Z,52.10
2018-12-14T20:17:29.049Z,52.10
2018-12-14T20:19:56.625Z,52.10
2018-12-14T20:22:24.100Z,52.70
2018-12-14T20:24:51.637Z,52.10
2018-12-14T20:27:19.180Z,52.10
2018-12-14T20:29:46.715Z,52.70
2018-12-14T20:32:14.200Z,52.10
2018-12-14T20:34:41.725Z,52.10
2018-12-14T20:37:09.338Z,52.10
2018-12-14T20:39:36.801Z,52.60
2018-12-14T20:42:04.344Z,52.90
2018-12-14T20:44:31.884Z,53.00
2018-12-14T20:46:59.424Z,52.30
2018-12-14T20:49:28.051Z,52.10
2018-12-14T20:51:55.569Z,52.10
2018-12-14T20:54:23.038Z,52.50
2018-12-14T20:56:51.758Z,52.30
2018-12-14T20:59:19.594Z,53.40
2018-12-14T21:01:47.199Z,52.60
2018-12-14T21:04:14.787Z,52.50
2018-12-14T21:06:42.348Z,52.10
2018-12-14T21:09:09.851Z,52.10
2018-12-14T21:11:37.343Z,52.60
2018-12-14T21:14:04.941Z,52.70
2018-12-14T21:16:32.492Z,52.80
2018-12-14T21:19:01.116Z,52.60
2018-12-14T21:21:28.711Z,52.90
2018-12-14T21:23:56.186Z,53.10
2018-12-14T21:26:23.710Z,53.10
2018-12-14T21:28:51.208Z,52.90
2018-12-14T21:31:19.442Z,52.70
2018-12-14T21:33:46.934Z,52.80
2018-12-14T21:36:14.581Z,52.60
2018-12-14T21:38:42.119Z,52.60
2018-12-14T21:41:09.616Z,52.80
2018-12-14T21:43:38.065Z,52.60
2018-12-14T21:46:05.571Z,52.50
2018-12-14T21:48:33.083Z,53.00
2018-12-14T21:51:00.635Z,52.90
2018-12-14T21:53:28.180Z,52.70
2018-12-14T21:55:55.721Z,52.90
2018-12-14T21:58:23.261Z,52.60
2018-12-14T22:00:50.824Z,53.00
2018-12-14T22:03:18.440Z,52.70
2018-12-14T22:05:46.018Z,53.30
2018-12-14T22:08:13.528Z,53.00
2018-12-14T22:10:41.016Z,53.40
2018-12-14T22:13:08.515Z,52.90
2018-12-14T22:15:36.122Z,52.60
2018-12-14T22:18:03.639Z,52.20
2018-12-14T22:20:31.176Z,52.40
2018-12-14T22:22:58.708Z,52.10
2018-12-14T22:25:26.220Z,52.20
2018-12-14T22:27:53.735Z,52.60
2018-12-14T22:30:21.274Z,52.80
2018-12-14T22:32:48.769Z,52.70
2018-12-14T22:35:16.322Z,53.50
2018-12-14T22:37:43.821Z,54.30
2018-12-14T22:40:11.305Z,53.40
2018-12-14T22:42:38.940Z,53.30
2018-12-14T22:45:06.695Z,53.10
2018-12-14T22:47:34.357Z,53.10
2018-12-14T22:50:01.969Z,53.10
2018-12-14T22:52:29.474Z,52.80
2018-12-14T22:54:57.007Z,52.20
2018-12-14T22:57:24.515Z,52.70
2018-12-14T22:59:54.141Z,52.70
2018-12-14T23:02:21.651Z,52.80
2018-12-14T23:04:49.579Z,52.80
2018-12-14T23:07:17.127Z,52.90
2018-12-14T23:09:44.690Z,53.00
2018-12-14T23:12:13.457Z,53.20
2018-12-14T23:14:41.027Z,53.50
2018-12-14T23:17:08.571Z,53.60
2018-12-14T23:19:36.101Z,53.70
2018-12-14T23:22:03.637Z,53.90
2018-12-14T23:24:31.172Z,54.10
2018-12-14T23:26:58.829Z,54.10
2018-12-14T23:29:26.325Z,54.00
2018-12-14T23:31:53.922Z,54.00
2018-12-14T23:34:21.511Z,53.90
2018-12-14T23:36:49.107Z,54.30
2018-12-14T23:39:16.602Z,54.50
2018-12-14T23:41:44.117Z,53.90
2018-12-14T23:44:11.647Z,54.20
2018-12-14T23:46:39.152Z,54.40
2018-12-14T23:49:06.676Z,53.90
2018-12-14T23:51:34.276Z,53.70
2018-12-14T23:54:01.809Z,53.70
2018-12-14T23:56:29.327Z,53.80
2018-12-14T23:58:56.829Z,54.00
